sensor_id;sensor_type;location;lat;lon;timestamp;pressure;altitude;pressure_sealevel;temperature;humidity
59877;BME280;74472;51.140;17.184;2024-01-15T00:01:59;98176.59;;;2.10;85.96
59877;BME280;74472;51.140;17.184;2024-01-15T00:04:25;98165.25;;;2.11;86.36
59877;BME280;74472;51.140;17.184;2024-01-15T00:06:50;98165.84;;;2.15;86.06
59877;BME280;74472;51.140;17.184;2024-01-15T00:09:15;98151.91;;;2.16;86.08
59877;BME280;74472;51.140;17.184;2024-01-15T00:11:42;98149.91;;;2.20;86.19
59877;BME280;74472;51.140;17.184;2024-01-15T00:14:08;98141.19;;;2.21;86.09
59877;BME280;74472;51.140;17.184;2024-01-15T00:16:33;98136.34;;;2.27;85.83
59877;BME280;74472;51.140;17.184;2024-01-15T00:37:45;98100.91;;;2.49;84.57
59877;BME280;74472;51.140;17.184;2024-01-15T00:40:10;98086.94;;;2.50;84.66
59877;BME280;74472;51.140;17.184;2024-01-15T00:42:36;98090.50;;;2.49;84.40
59877;BME280;74472;51.140;17.184;2024-01-15T00:45:01;98095.69;;;2.49;84.52
59877;BME280;74472;51.140;17.184;2024-01-15T00:47:26;98089.75;;;2.47;84.30
59877;BME280;74472;51.140;17.184;2024-01-15T00:49:52;98073.22;;;2.48;84.36
59877;BME280;74472;51.140;17.184;2024-01-15T00:52:17;98074.66;;;2.52;84.75
59877;BME280;74472;51.140;17.184;2024-01-15T00:54:42;98069.34;;;2.53;84.37
59877;BME280;74472;51.140;17.184;2024-01-15T00:57:08;98063.28;;;2.53;84.58
59877;BME280;74472;51.140;17.184;2024-01-15T00:59:33;98055.47;;;2.53;84.60
59877;BME280;74472;51.140;17.184;2024-01-15T01:01:58;98053.00;;;2.51;84.32
59877;BME280;74472;51.140;17.184;2024-01-15T01:04:24;98058.44;;;2.48;84.25
59877;BME280;74472;51.140;17.184;2024-01-15T01:06:49;98063.41;;;2.51;84.10
59877;BME280;74472;51.140;17.184;2024-01-15T01:09:14;98046.81;;;2.52;84.26
59877;BME280;74472;51.140;17.184;2024-01-15T01:11:39;98053.81;;;2.52;84.25
59877;BME280;74472;51.140;17.184;2024-01-15T01:14:05;98043.41;;;2.52;84.13
59877;BME280;74472;51.140;17.184;2024-01-15T01:16:30;98049.44;;;2.52;83.97
59877;BME280;74472;51.140;17.184;2024-01-15T01:18:56;98043.03;;;2.45;83.66
59877;BME280;74472;51.140;17.184;2024-01-15T01:21:22;98041.72;;;2.40;84.06
59877;BME280;74472;51.140;17.184;2024-01-15T01:23:47;98039.00;;;2.41;84.28
59877;BME280;74472;51.140;17.184;2024-01-15T01:26:15;98042.53;;;2.40;84.14
59877;BME280;74472;51.140;17.184;2024-01-15T01:28:41;98038.44;;;2.38;83.98
59877;BME280;74472;51.140;17.184;2024-01-15T01:31:06;98037.69;;;2.35;84.27
59877;BME280;74472;51.140;17.184;2024-01-15T01:33:31;98036.06;;;2.34;83.82
59877;BME280;74472;51.140;17.184;2024-01-15T01:35:56;98027.75;;;2.29;83.80
59877;BME280;74472;51.140;17.184;2024-01-15T01:38:22;98042.19;;;2.33;84.07
59877;BME280;74472;51.140;17.184;2024-01-15T01:40:47;98033.91;;;2.28;83.88
59877;BME280;74472;51.140;17.184;2024-01-15T01:43:12;98036.16;;;2.33;83.79
59877;BME280;74472;51.140;17.184;2024-01-15T01:45:38;98033.44;;;2.34;83.73
59877;BME280;74472;51.140;17.184;2024-01-15T01:48:04;98024.91;;;2.32;83.62
59877;BME280;74472;51.140;17.184;2024-01-15T01:50:31;98020.66;;;2.31;83.44
59877;BME280;74472;51.140;17.184;2024-01-15T01:52:56;98011.66;;;2.24;83.15
59877;BME280;74472;51.140;17.184;2024-01-15T01:55:24;98005.50;;;2.25;83.19
59877;BME280;74472;51.140;17.184;2024-01-15T01:57:51;98002.19;;;2.23;83.06
59877;BME280;74472;51.140;17.184;2024-01-15T02:00:17;97997.81;;;2.24;83.15
59877;BME280;74472;51.140;17.184;2024-01-15T02:02:42;98004.19;;;2.20;82.92
59877;BME280;74472;51.140;17.184;2024-01-15T02:05:08;98003.50;;;2.18;82.66
59877;BME280;74472;51.140;17.184;2024-01-15T02:07:34;98007.84;;;2.17;83.01
59877;BME280;74472;51.140;17.184;2024-01-15T02:09:59;98005.38;;;2.16;82.85
59877;BME280;74472;51.140;17.184;2024-01-15T02:12:25;98002.03;;;2.14;82.92
59877;BME280;74472;51.140;17.184;2024-01-15T02:14:50;98004.88;;;2.10;83.01
59877;BME280;74472;51.140;17.184;2024-01-15T02:17:15;98006.53;;;2.11;82.70
59877;BME280;74472;51.140;17.184;2024-01-15T02:19:41;98010.94;;;2.11;83.21
59877;BME280;74472;51.140;17.184;2024-01-15T02:22:06;98001.06;;;2.03;83.50
59877;BME280;74472;51.140;17.184;2024-01-15T02:24:31;98009.00;;;2.02;84.05
59877;BME280;74472;51.140;17.184;2024-01-15T02:26:57;98004.03;;;1.99;84.18
59877;BME280;74472;51.140;17.184;2024-01-15T02:29:23;98005.06;;;1.96;84.32
59877;BME280;74472;51.140;17.184;2024-01-15T02:31:48;97998.53;;;1.91;84.54
59877;BME280;74472;51.140;17.184;2024-01-15T02:34:13;97987.78;;;1.84;84.87
59877;BME280;74472;51.140;17.184;2024-01-15T02:36:38;97983.44;;;1.84;84.82
59877;BME280;74472;51.140;17.184;2024-01-15T02:39:04;97978.44;;;1.81;84.98
59877;BME280;74472;51.140;17.184;2024-01-15T02:41:29;97966.72;;;1.76;85.23
59877;BME280;74472;51.140;17.184;2024-01-15T02:43:54;97970.75;;;1.80;85.26
59877;BME280;74472;51.140;17.184;2024-01-15T02:46:19;97966.50;;;1.79;85.33
59877;BME280;74472;51.140;17.184;2024-01-15T02:48:45;97965.66;;;1.78;85.33
59877;BME280;74472;51.140;17.184;2024-01-15T02:51:10;97957.66;;;1.81;85.46
59877;BME280;74472;51.140;17.184;2024-01-15T02:53:36;97956.34;;;1.87;85.37
59877;BME280;74472;51.140;17.184;2024-01-15T02:56:02;97955.50;;;1.86;84.83
59877;BME280;74472;51.140;17.184;2024-01-15T02:58:28;97954.91;;;1.83;85.11
59877;BME280;74472;51.140;17.184;2024-01-15T03:00:53;97957.28;;;1.86;85.17
59877;BME280;74472;51.140;17.184;2024-01-15T03:03:18;97952.44;;;1.81;85.55
59877;BME280;74472;51.140;17.184;2024-01-15T03:05:43;97949.13;;;1.79;85.20
59877;BME280;74472;51.140;17.184;2024-01-15T03:08:09;97943.19;;;1.77;85.41
59877;BME280;74472;51.140;17.184;2024-01-15T03:10:34;97944.28;;;1.75;85.54
59877;BME280;74472;51.140;17.184;2024-01-15T03:12:59;97932.41;;;1.71;85.54
59877;BME280;74472;51.140;17.184;2024-01-15T03:15:24;97929.94;;;1.69;85.71
59877;BME280;74472;51.140;17.184;2024-01-15T03:17:50;97927.81;;;1.74;85.55
59877;BME280;74472;51.140;17.184;2024-01-15T03:20:15;97927.94;;;1.73;85.76
59877;BME280;74472;51.140;17.184;2024-01-15T03:22:40;97927.13;;;1.72;85.72
59877;BME280;74472;51.140;17.184;2024-01-15T03:25:06;97932.31;;;1.72;85.41
59877;BME280;74472;51.140;17.184;2024-01-15T03:27:32;97923.78;;;1.70;85.44
59877;BME280;74472;51.140;17.184;2024-01-15T03:29:57;97920.59;;;1.67;85.17
59877;BME280;74472;51.140;17.184;2024-01-15T03:32:23;97921.19;;;1.70;85.10
59877;BME280;74472;51.140;17.184;2024-01-15T03:34:48;97923.69;;;1.72;85.44
59877;BME280;74472;51.140;17.184;2024-01-15T03:37:14;97923.69;;;1.72;85.34
59877;BME280;74472;51.140;17.184;2024-01-15T03:39:39;97931.97;;;1.77;85.35
59877;BME280;74472;51.140;17.184;2024-01-15T03:42:04;97920.75;;;1.76;85.25
59877;BME280;74472;51.140;17.184;2024-01-15T03:44:30;97925.13;;;1.76;85.00
59877;BME280;74472;51.140;17.184;2024-01-15T03:46:55;97912.22;;;1.74;85.27
59877;BME280;74472;51.140;17.184;2024-01-15T03:49:20;97915.16;;;1.70;85.30
59877;BME280;74472;51.140;17.184;2024-01-15T03:51:46;97914.13;;;1.72;85.46
59877;BME280;74472;51.140;17.184;2024-01-15T03:54:11;97915.78;;;1.73;85.68
59877;BME280;74472;51.140;17.184;2024-01-15T03:56:36;97912.22;;;1.74;85.39
59877;BME280;74472;51.140;17.184;2024-01-15T03:59:01;97896.97;;;1.70;85.18
59877;BME280;74472;51.140;17.184;2024-01-15T04:01:27;97902.06;;;1.71;85.11
59877;BME280;74472;51.140;17.184;2024-01-15T04:03:52;97900.91;;;1.75;85.23
59877;BME280;74472;51.140;17.184;2024-01-15T04:06:18;97899.22;;;1.74;85.13
59877;BME280;74472;51.140;17.184;2024-01-15T04:08:43;97899.72;;;1.79;85.01
59877;BME280;74472;51.140;17.184;2024-01-15T04:11:08;97900.31;;;1.83;85.01
59877;BME280;74472;51.140;17.184;2024-01-15T04:13:33;97894.28;;;1.82;84.69
59877;BME280;74472;51.140;17.184;2024-01-15T04:15:59;97901.94;;;1.84;84.11
59877;BME280;74472;51.140;17.184;2024-01-15T04:18:25;97890.63;;;1.85;84.31
59877;BME280;74472;51.140;17.184;2024-01-15T04:20:50;97877.63;;;1.85;84.08
59877;BME280;74472;51.140;17.184;2024-01-15T04:23:16;97872.19;;;1.88;84.32
59877;BME280;74472;51.140;17.184;2024-01-15T04:25:41;97869.22;;;1.93;83.70
59877;BME280;74472;51.140;17.184;2024-01-15T04:28:08;97869.47;;;1.90;83.74
59877;BME280;74472;51.140;17.184;2024-01-15T04:30:33;97860.84;;;1.89;83.73
59877;BME280;74472;51.140;17.184;2024-01-15T04:32:59;97862.25;;;1.93;83.72
59877;BME280;74472;51.140;17.184;2024-01-15T04:35:24;97857.06;;;1.93;83.38
59877;BME280;74472;51.140;17.184;2024-01-15T04:37:49;97865.44;;;1.97;83.53
59877;BME280;74472;51.140;17.184;2024-01-15T04:40:15;97861.06;;;1.97;83.34
59877;BME280;74472;51.140;17.184;2024-01-15T04:42:40;97847.13;;;1.98;83.26
59877;BME280;74472;51.140;17.184;2024-01-15T04:45:05;97848.69;;;2.01;83.47
59877;BME280;74472;51.140;17.184;2024-01-15T04:47:31;97849.38;;;2.03;83.27
59877;BME280;74472;51.140;17.184;2024-01-15T04:49:56;97848.31;;;2.05;83.04
59877;BME280;74472;51.140;17.184;2024-01-15T04:52:21;97852.56;;;2.06;82.89
59877;BME280;74472;51.140;17.184;2024-01-15T04:54:46;97857.06;;;2.04;82.91
59877;BME280;74472;51.140;17.184;2024-01-15T04:57:12;97856.13;;;2.05;82.96
59877;BME280;74472;51.140;17.184;2024-01-15T04:59:37;97854.25;;;2.07;82.95
59877;BME280;74472;51.140;17.184;2024-01-15T05:02:02;97849.03;;;2.07;83.10
59877;BME280;74472;51.140;17.184;2024-01-15T05:04:28;97846.66;;;2.04;82.73
59877;BME280;74472;51.140;17.184;2024-01-15T05:06:55;97846.44;;;2.07;82.67
59877;BME280;74472;51.140;17.184;2024-01-15T05:09:20;97844.75;;;2.06;82.69
59877;BME280;74472;51.140;17.184;2024-01-15T05:11:46;97850.56;;;2.10;82.67
59877;BME280;74472;51.140;17.184;2024-01-15T05:14:11;97842.97;;;2.07;82.53
59877;BME280;74472;51.140;17.184;2024-01-15T05:16:40;97838.97;;;2.03;82.19
59877;BME280;74472;51.140;17.184;2024-01-15T05:19:11;97839.78;;;2.03;82.67
59877;BME280;74472;51.140;17.184;2024-01-15T05:21:36;97843.94;;;2.06;82.45
59877;BME280;74472;51.140;17.184;2024-01-15T05:24:02;97845.47;;;2.08;82.73
59877;BME280;74472;51.140;17.184;2024-01-15T05:26:27;97849.13;;;2.06;82.50
59877;BME280;74472;51.140;17.184;2024-01-15T05:28:52;97857.06;;;2.04;82.55
59877;BME280;74472;51.140;17.184;2024-01-15T05:31:18;97854.13;;;1.98;82.86
59877;BME280;74472;51.140;17.184;2024-01-15T05:33:43;97853.53;;;1.94;83.28
59877;BME280;74472;51.140;17.184;2024-01-15T05:36:08;97851.63;;;1.85;83.79
59877;BME280;74472;51.140;17.184;2024-01-15T05:38:33;97857.97;;;1.81;84.17
59877;BME280;74472;51.140;17.184;2024-01-15T05:40:59;97851.94;;;1.80;84.54
59877;BME280;74472;51.140;17.184;2024-01-15T05:43:24;97864.25;;;1.78;84.75
59877;BME280;74472;51.140;17.184;2024-01-15T05:45:49;97865.41;;;1.74;85.26
59877;BME280;74472;51.140;17.184;2024-01-15T05:48:15;97870.16;;;1.69;85.60
59877;BME280;74472;51.140;17.184;2024-01-15T05:50:41;97873.81;;;1.67;85.82
59877;BME280;74472;51.140;17.184;2024-01-15T05:53:06;97871.56;;;1.62;85.88
59877;BME280;74472;51.140;17.184;2024-01-15T05:55:32;97875.22;;;1.59;86.19
59877;BME280;74472;51.140;17.184;2024-01-15T05:57:57;97864.22;;;1.56;86.43
59877;BME280;74472;51.140;17.184;2024-01-15T06:00:22;97879.91;;;1.54;86.52
59877;BME280;74472;51.140;17.184;2024-01-15T06:02:47;97876.63;;;1.52;86.72
59877;BME280;74472;51.140;17.184;2024-01-15T06:05:13;97881.00;;;1.52;86.86
59877;BME280;74472;51.140;17.184;2024-01-15T06:07:38;97873.88;;;1.54;87.03
59877;BME280;74472;51.140;17.184;2024-01-15T06:10:06;97870.09;;;1.58;86.85
59877;BME280;74472;51.140;17.184;2024-01-15T06:12:32;97875.09;;;1.61;86.69
59877;BME280;74472;51.140;17.184;2024-01-15T06:14:58;97860.53;;;1.47;86.71
59877;BME280;74472;51.140;17.184;2024-01-15T06:17:29;97863.94;;;1.48;86.94
59877;BME280;74472;51.140;17.184;2024-01-15T06:19:56;97865.13;;;1.44;86.78
59877;BME280;74472;51.140;17.184;2024-01-15T06:22:22;97878.63;;;1.60;86.71
59877;BME280;74472;51.140;17.184;2024-01-15T06:24:47;97881.47;;;1.57;86.42
59877;BME280;74472;51.140;17.184;2024-01-15T06:27:12;97876.75;;;1.62;86.82
59877;BME280;74472;51.140;17.184;2024-01-15T06:29:38;97873.34;;;1.61;86.69
59877;BME280;74472;51.140;17.184;2024-01-15T06:32:04;97879.22;;;1.63;86.56
59877;BME280;74472;51.140;17.184;2024-01-15T06:34:29;97881.59;;;1.67;86.43
59877;BME280;74472;51.140;17.184;2024-01-15T06:36:55;97886.69;;;1.68;86.63
59877;BME280;74472;51.140;17.184;2024-01-15T06:39:20;97885.03;;;1.67;86.61
59877;BME280;74472;51.140;17.184;2024-01-15T06:41:45;97896.88;;;1.71;86.27
59877;BME280;74472;51.140;17.184;2024-01-15T06:44:11;97890.72;;;1.72;86.48
59877;BME280;74472;51.140;17.184;2024-01-15T06:46:36;97897.56;;;1.73;86.24
59877;BME280;74472;51.140;17.184;2024-01-15T06:49:02;97896.88;;;1.71;86.44
59877;BME280;74472;51.140;17.184;2024-01-15T06:51:29;97896.63;;;1.74;86.44
59877;BME280;74472;51.140;17.184;2024-01-15T06:53:54;97907.00;;;1.74;86.12
59877;BME280;74472;51.140;17.184;2024-01-15T06:56:19;97904.19;;;1.77;86.15
59877;BME280;74472;51.140;17.184;2024-01-15T06:58:44;97920.75;;;1.76;86.05
59877;BME280;74472;51.140;17.184;2024-01-15T07:01:10;97909.75;;;1.73;86.00
59877;BME280;74472;51.140;17.184;2024-01-15T07:03:35;97914.25;;;1.82;86.06
59877;BME280;74472;51.140;17.184;2024-01-15T07:06:00;97911.44;;;1.85;86.15
59877;BME280;74472;51.140;17.184;2024-01-15T07:08:26;97927.84;;;1.85;85.78
59877;BME280;74472;51.140;17.184;2024-01-15T07:10:51;97919.34;;;1.83;85.13
59877;BME280;74472;51.140;17.184;2024-01-15T07:13:17;97919.47;;;1.82;85.42
59877;BME280;74472;51.140;17.184;2024-01-15T07:15:42;97919.47;;;1.82;84.96
59877;BME280;74472;51.140;17.184;2024-01-15T07:18:08;97924.31;;;1.86;85.35
59877;BME280;74472;51.140;17.184;2024-01-15T07:20:33;97926.91;;;1.86;85.22
59877;BME280;74472;51.140;17.184;2024-01-15T07:22:59;97933.88;;;1.86;84.78
59877;BME280;74472;51.140;17.184;2024-01-15T07:25:24;97942.50;;;1.86;84.67
59877;BME280;74472;51.140;17.184;2024-01-15T07:27:51;97928.81;;;1.84;84.00
59877;BME280;74472;51.140;17.184;2024-01-15T07:30:16;97931.41;;;1.84;84.27
59877;BME280;74472;51.140;17.184;2024-01-15T07:32:42;97922.06;;;1.82;83.99
59877;BME280;74472;51.140;17.184;2024-01-15T07:35:07;97926.22;;;1.84;83.75
59877;BME280;74472;51.140;17.184;2024-01-15T07:37:33;97927.97;;;1.84;83.44
59877;BME280;74472;51.140;17.184;2024-01-15T07:39:58;97918.63;;;1.81;83.50
59877;BME280;74472;51.140;17.184;2024-01-15T07:42:24;97912.59;;;1.81;83.05
59877;BME280;74472;51.140;17.184;2024-01-15T07:44:49;97904.78;;;1.81;83.02
59877;BME280;74472;51.140;17.184;2024-01-15T07:47:16;97917.78;;;1.81;82.77
59877;BME280;74472;51.140;17.184;2024-01-15T07:49:42;97926.44;;;1.81;83.05
59877;BME280;74472;51.140;17.184;2024-01-15T07:52:07;97919.56;;;1.80;82.50
59877;BME280;74472;51.140;17.184;2024-01-15T07:54:33;97920.28;;;1.82;82.56
59877;BME280;74472;51.140;17.184;2024-01-15T07:57:02;97907.16;;;1.84;82.80
59877;BME280;74472;51.140;17.184;2024-01-15T07:59:31;97908.84;;;1.85;82.17
59877;BME280;74472;51.140;17.184;2024-01-15T08:01:58;97897.84;;;1.81;82.18
59877;BME280;74472;51.140;17.184;2024-01-15T08:04:24;97889.81;;;1.84;82.43
59877;BME280;74472;51.140;17.184;2024-01-15T08:06:49;97885.31;;;1.86;82.04
59877;BME280;74472;51.140;17.184;2024-01-15T08:09:14;97897.34;;;1.87;81.38
59877;BME280;74472;51.140;17.184;2024-01-15T08:11:40;97893.22;;;1.85;81.25
59877;BME280;74472;51.140;17.184;2024-01-15T08:14:06;97883.88;;;1.82;81.36
59877;BME280;74472;51.140;17.184;2024-01-15T08:16:32;97895.47;;;1.90;80.90
59877;BME280;74472;51.140;17.184;2024-01-15T08:18:57;97899.03;;;1.88;80.70
59877;BME280;74472;51.140;17.184;2024-01-15T08:21:22;97889.44;;;1.89;80.73
59877;BME280;74472;51.140;17.184;2024-01-15T08:23:48;97891.91;;;1.91;80.66
59877;BME280;74472;51.140;17.184;2024-01-15T08:26:13;97883.41;;;1.88;80.45
59877;BME280;74472;51.140;17.184;2024-01-15T08:28:38;97882.00;;;1.84;80.22
59877;BME280;74472;51.140;17.184;2024-01-15T08:31:03;97887.34;;;1.94;80.26
59877;BME280;74472;51.140;17.184;2024-01-15T08:33:29;97877.03;;;1.93;80.12
59877;BME280;74472;51.140;17.184;2024-01-15T08:35:54;97882.13;;;1.94;80.28
59877;BME280;74472;51.140;17.184;2024-01-15T08:38:20;97893.22;;;1.96;79.90
59877;BME280;74472;51.140;17.184;2024-01-15T08:40:45;97883.78;;;1.95;80.00
59877;BME280;74472;51.140;17.184;2024-01-15T08:43:10;97892.91;;;2.01;79.50
59877;BME280;74472;51.140;17.184;2024-01-15T08:45:36;97889.34;;;2.02;79.52
59877;BME280;74472;51.140;17.184;2024-01-15T08:48:01;97894.31;;;2.05;79.36
59877;BME280;74472;51.140;17.184;2024-01-15T08:50:27;97896.09;;;2.04;79.10
59877;BME280;74472;51.140;17.184;2024-01-15T08:52:52;97892.63;;;2.04;78.93
59877;BME280;74472;51.140;17.184;2024-01-15T08:55:18;97884.72;;;2.05;79.23
59877;BME280;74472;51.140;17.184;2024-01-15T08:57:43;97895.72;;;2.09;79.04
59877;BME280;74472;51.140;17.184;2024-01-15T09:00:09;97895.72;;;2.09;78.74
59877;BME280;74472;51.140;17.184;2024-01-15T09:02:34;97892.31;;;2.08;78.38
59877;BME280;74472;51.140;17.184;2024-01-15T09:05:01;97895.97;;;2.06;78.13
59877;BME280;74472;51.140;17.184;2024-01-15T09:07:26;97891.25;;;2.11;78.75
59877;BME280;74472;51.140;17.184;2024-01-15T09:09:52;97890.06;;;2.15;78.72
59877;BME280;74472;51.140;17.184;2024-01-15T09:12:18;97895.84;;;2.19;77.69
59877;BME280;74472;51.140;17.184;2024-01-15T09:14:46;97896.69;;;2.19;78.08
59877;BME280;74472;51.140;17.184;2024-01-15T09:17:11;97898.47;;;2.19;77.86
59877;BME280;74472;51.140;17.184;2024-01-15T09:19:36;97887.47;;;2.15;77.85
59877;BME280;74472;51.140;17.184;2024-01-15T09:22:01;97890.66;;;2.19;78.03
59877;BME280;74472;51.140;17.184;2024-01-15T09:24:27;97877.88;;;2.16;77.55
59877;BME280;74472;51.140;17.184;2024-01-15T09:26:52;97890.53;;;2.20;77.91
59877;BME280;74472;51.140;17.184;2024-01-15T09:29:17;97878.59;;;2.18;77.81
59877;BME280;74472;51.140;17.184;2024-01-15T09:31:43;97887.09;;;2.20;78.05
59877;BME280;74472;51.140;17.184;2024-01-15T09:34:09;97882.59;;;2.22;78.03
59877;BME280;74472;51.140;17.184;2024-01-15T09:36:40;97873.84;;;2.23;77.97
59877;BME280;74472;51.140;17.184;2024-01-15T09:39:06;97880.34;;;2.28;77.72
59877;BME280;74472;51.140;17.184;2024-01-15T09:41:34;97875.41;;;2.25;77.36
59877;BME280;74472;51.140;17.184;2024-01-15T09:44:00;97879.78;;;2.25;77.54
59877;BME280;74472;51.140;17.184;2024-01-15T09:46:27;97889.94;;;2.28;77.44
59877;BME280;74472;51.140;17.184;2024-01-15T09:48:52;97879.53;;;2.28;77.31
59877;BME280;74472;51.140;17.184;2024-01-15T09:51:18;97888.88;;;2.30;77.45
59877;BME280;74472;51.140;17.184;2024-01-15T09:53:46;97892.66;;;2.26;77.30
59877;BME280;74472;51.140;17.184;2024-01-15T09:56:12;97893.25;;;2.30;77.42
59877;BME280;74472;51.140;17.184;2024-01-15T09:58:38;97888.03;;;2.30;77.02
59877;BME280;74472;51.140;17.184;2024-01-15T10:01:04;97885.19;;;2.33;77.43
59877;BME280;74472;51.140;17.184;2024-01-15T10:03:29;97876.56;;;2.32;77.48
59877;BME280;74472;51.140;17.184;2024-01-15T10:05:55;97891.34;;;2.32;76.44
59877;BME280;74472;51.140;17.184;2024-01-15T10:08:23;97879.63;;;2.26;76.66
59877;BME280;74472;51.140;17.184;2024-01-15T10:10:48;97882.59;;;2.33;76.53
59877;BME280;74472;51.140;17.184;2024-01-15T10:13:14;97893.00;;;2.33;76.81
59877;BME280;74472;51.140;17.184;2024-01-15T10:15:40;97894.53;;;2.35;76.59
59877;BME280;74472;51.140;17.184;2024-01-15T10:18:05;97891.94;;;2.35;76.27
59877;BME280;74472;51.140;17.184;2024-01-15T10:20:33;97877.97;;;2.37;76.30
59877;BME280;74472;51.140;17.184;2024-01-15T10:22:59;97897.75;;;2.39;76.56
59877;BME280;74472;51.140;17.184;2024-01-15T10:25:24;97874.44;;;2.38;76.48
59877;BME280;74472;51.140;17.184;2024-01-15T10:28:01;97886.50;;;2.39;76.40
59877;BME280;74472;51.140;17.184;2024-01-15T10:30:27;97896.78;;;2.40;75.89
59877;BME280;74472;51.140;17.184;2024-01-15T10:33:00;97887.47;;;2.38;75.80
59877;BME280;74472;51.140;17.184;2024-01-15T10:35:30;97880.56;;;2.37;75.83
59877;BME280;74472;51.140;17.184;2024-01-15T10:37:56;97878.94;;;2.35;75.42
59877;BME280;74472;51.140;17.184;2024-01-15T10:40:21;97840.13;;;2.32;75.79
59877;BME280;74472;51.140;17.184;2024-01-15T10:42:46;97872.66;;;2.38;75.94
59877;BME280;74472;51.140;17.184;2024-01-15T10:45:15;97861.06;;;2.42;76.01
59877;BME280;74472;51.140;17.184;2024-01-15T10:47:42;97859.38;;;2.52;76.16
59877;BME280;74472;51.140;17.184;2024-01-15T10:50:08;97864.84;;;2.61;75.27
59877;BME280;74472;51.140;17.184;2024-01-15T10:52:35;97860.91;;;2.66;75.52
59877;BME280;74472;51.140;17.184;2024-01-15T10:55:02;97869.91;;;2.73;75.45
59877;BME280;74472;51.140;17.184;2024-01-15T10:57:28;97853.31;;;2.74;74.76
59877;BME280;74472;51.140;17.184;2024-01-15T10:59:54;97863.84;;;2.73;74.87
59877;BME280;74472;51.140;17.184;2024-01-15T11:02:19;97852.84;;;2.69;74.40
59877;BME280;74472;51.140;17.184;2024-01-15T11:04:45;97858.75;;;2.71;75.06
59877;BME280;74472;51.140;17.184;2024-01-15T11:07:10;97846.00;;;2.68;75.06
59877;BME280;74472;51.140;17.184;2024-01-15T11:09:37;97858.75;;;2.71;74.59
59877;BME280;74472;51.140;17.184;2024-01-15T11:12:15;97863.25;;;2.80;75.26
59877;BME280;74472;51.140;17.184;2024-01-15T11:14:48;97871.16;;;2.90;75.29
59877;BME280;74472;51.140;17.184;2024-01-15T11:17:15;97868.63;;;3.00;74.86
59877;BME280;74472;51.140;17.184;2024-01-15T11:22:10;97868.59;;;3.11;74.47
59877;BME280;74472;51.140;17.184;2024-01-15T11:27:04;97862.75;;;3.19;73.92
59877;BME280;74472;51.140;17.184;2024-01-15T11:29:34;97859.38;;;3.28;73.75
59877;BME280;74472;51.140;17.184;2024-01-15T11:32:04;97883.22;;;3.23;73.04
59877;BME280;74472;51.140;17.184;2024-01-15T11:37:23;97865.97;;;3.11;73.49
59877;BME280;74472;51.140;17.184;2024-01-15T11:39:51;97874.28;;;3.05;72.88
59877;BME280;74472;51.140;17.184;2024-01-15T11:42:16;97862.78;;;3.08;73.71
59877;BME280;74472;51.140;17.184;2024-01-15T11:44:44;97849.06;;;3.05;74.04
59877;BME280;74472;51.140;17.184;2024-01-15T11:47:11;97851.88;;;3.14;73.72
59877;BME280;74472;51.140;17.184;2024-01-15T11:50:04;97861.47;;;3.13;72.51
59877;BME280;74472;51.140;17.184;2024-01-15T11:52:35;97872.16;;;3.10;73.22
59877;BME280;74472;51.140;17.184;2024-01-15T11:57:46;97852.03;;;3.01;72.41
59877;BME280;74472;51.140;17.184;2024-01-15T12:00:14;97858.66;;;3.05;72.92
59877;BME280;74472;51.140;17.184;2024-01-15T12:02:44;97856.63;;;3.09;72.92
59877;BME280;74472;51.140;17.184;2024-01-15T12:05:12;97848.94;;;3.07;72.48
59877;BME280;74472;51.140;17.184;2024-01-15T12:07:43;97854.72;;;3.11;72.79
59877;BME280;74472;51.140;17.184;2024-01-15T12:10:13;97852.22;;;3.09;73.51
59877;BME280;74472;51.140;17.184;2024-01-15T12:12:53;97856.50;;;3.10;73.27
59877;BME280;74472;51.140;17.184;2024-01-15T12:15:21;97860.34;;;3.06;73.00
59877;BME280;74472;51.140;17.184;2024-01-15T12:17:46;97865.53;;;3.06;72.62
59877;BME280;74472;51.140;17.184;2024-01-15T12:20:12;97875.50;;;3.01;72.82
59877;BME280;74472;51.140;17.184;2024-01-15T12:22:38;97840.81;;;2.89;72.51
59877;BME280;74472;51.140;17.184;2024-01-15T12:25:03;97871.16;;;2.90;72.78
59877;BME280;74472;51.140;17.184;2024-01-15T12:27:29;97867.00;;;2.88;73.13
59877;BME280;74472;51.140;17.184;2024-01-15T12:29:55;97870.69;;;2.85;72.91
59877;BME280;74472;51.140;17.184;2024-01-15T12:32:20;97851.88;;;2.81;73.34
59877;BME280;74472;51.140;17.184;2024-01-15T12:34:49;97860.72;;;2.90;73.47
59877;BME280;74472;51.140;17.184;2024-01-15T12:37:14;97856.34;;;2.91;73.04
59877;BME280;74472;51.140;17.184;2024-01-15T12:39:43;97843.44;;;2.89;72.54
59877;BME280;74472;51.140;17.184;2024-01-15T12:42:09;97863.78;;;2.95;73.00
59877;BME280;74472;51.140;17.184;2024-01-15T12:44:35;97857.75;;;2.95;72.90
59877;BME280;74472;51.140;17.184;2024-01-15T12:47:01;97856.94;;;2.94;72.32
59877;BME280;74472;51.140;17.184;2024-01-15T12:49:26;97841.41;;;2.93;72.71
59877;BME280;74472;51.140;17.184;2024-01-15T12:52:01;97855.53;;;2.90;72.56
59877;BME280;74472;51.140;17.184;2024-01-15T12:54:26;97859.91;;;2.90;72.75
59877;BME280;74472;51.140;17.184;2024-01-15T12:56:51;97847.81;;;2.89;72.98
59877;BME280;74472;51.140;17.184;2024-01-15T12:59:18;97852.53;;;2.95;72.81
59877;BME280;74472;51.140;17.184;2024-01-15T13:01:44;97855.53;;;2.90;72.18
59877;BME280;74472;51.140;17.184;2024-01-15T13:04:10;97862.63;;;2.88;72.17
59877;BME280;74472;51.140;17.184;2024-01-15T13:06:35;97859.44;;;2.85;72.75
59877;BME280;74472;51.140;17.184;2024-01-15T13:09:02;97855.88;;;2.86;72.77
59877;BME280;74472;51.140;17.184;2024-01-15T13:11:30;97829.38;;;2.80;72.89
59877;BME280;74472;51.140;17.184;2024-01-15T13:13:58;97834.84;;;2.77;72.61
59877;BME280;74472;51.140;17.184;2024-01-15T13:16:23;97857.56;;;2.87;72.50
59877;BME280;74472;51.140;17.184;2024-01-15T13:18:52;97856.59;;;2.88;72.55
59877;BME280;74472;51.140;17.184;2024-01-15T13:21:17;97845.47;;;2.86;72.53
59877;BME280;74472;51.140;17.184;2024-01-15T13:23:42;97835.53;;;2.79;72.69